Terminal Aerodrome Forecast
Issued by NWS

Home | Current Version | Previous Version | Text Only | Print | Product List | Glossary On
Versions: 1 2 3 4 5 6 7 8 9 10 11 12 13
000
FTUS43 KLSX 212300
TAFSUS
TAF
KSUS 212320Z 2200/2224 28005KT P6SM SKC
     FM220200 23003KT P6SM SKC
     FM221300 29006KT P6SM BKN250
     FM222000 VRB04KT P6SM BKN200=

USA.gov is the U.S. government's official web portal to all federal, state and local government web resources and services.